sensor_id;sensor_type;location;lat;lon;timestamp;pressure;altitude;pressure_sealevel;temperature;humidity
75745;BME280;64359;51.366;-0.222;2023-03-23T00:00:40;99358.48;;;22.42;49.76
75745;BME280;64359;51.366;-0.222;2023-03-23T00:01:44;99359.03;;;22.42;49.74
75745;BME280;64359;51.366;-0.222;2023-03-23T00:02:49;99355.40;;;22.42;49.82
75745;BME280;64359;51.366;-0.222;2023-03-23T00:03:54;99357.36;;;22.42;49.92
75745;BME280;64359;51.366;-0.222;2023-03-23T00:05:00;99363.74;;;22.42;49.82
75745;BME280;64359;51.366;-0.222;2023-03-23T00:06:06;99367.33;;;22.42;49.79
75745;BME280;64359;51.366;-0.222;2023-03-23T00:07:11;99363.16;;;22.42;50.10
75745;BME280;64359;51.366;-0.222;2023-03-23T00:08:15;99364.90;;;22.43;50.14
75745;BME280;64359;51.366;-0.222;2023-03-23T00:09:20;99362.07;;;22.42;50.19
75745;BME280;64359;51.366;-0.222;2023-03-23T00:10:26;99362.62;;;22.42;50.17
75745;BME280;64359;51.366;-0.222;2023-03-23T00:11:35;99355.98;;;22.42;50.04
75745;BME280;64359;51.366;-0.222;2023-03-23T00:12:40;99358.58;;;22.42;50.25
75745;BME280;64359;51.366;-0.222;2023-03-23T00:13:45;99365.09;;;22.41;50.16
75745;BME280;64359;51.366;-0.222;2023-03-23T00:14:50;99361.63;;;22.42;50.16
75745;BME280;64359;51.366;-0.222;2023-03-23T00:15:57;99362.88;;;22.42;50.28
75745;BME280;64359;51.366;-0.222;2023-03-23T00:17:01;99363.84;;;22.41;50.17
75745;BME280;64359;51.366;-0.222;2023-03-23T00:18:06;99370.52;;;22.41;50.10
75745;BME280;64359;51.366;-0.222;2023-03-23T00:19:12;99362.34;;;22.42;50.14
75745;BME280;64359;51.366;-0.222;2023-03-23T00:20:17;99370.80;;;22.42;50.03
75745;BME280;64359;51.366;-0.222;2023-03-23T00:21:22;99378.36;;;22.42;49.91
75745;BME280;64359;51.366;-0.222;2023-03-23T00:22:28;99372.38;;;22.42;50.00
75745;BME280;64359;51.366;-0.222;2023-03-23T00:23:32;99379.81;;;22.42;50.02
75745;BME280;64359;51.366;-0.222;2023-03-23T00:24:37;99378.23;;;22.42;50.03
75745;BME280;64359;51.366;-0.222;2023-03-23T00:25:41;99374.52;;;22.42;49.93
75745;BME280;64359;51.366;-0.222;2023-03-23T00:26:47;99376.35;;;22.42;49.91
75745;BME280;64359;51.366;-0.222;2023-03-23T00:27:52;99380.81;;;22.43;49.80
75745;BME280;64359;51.366;-0.222;2023-03-23T00:28:56;99380.98;;;22.43;49.67
75745;BME280;64359;51.366;-0.222;2023-03-23T00:30:04;99379.73;;;22.43;49.72
75745;BME280;64359;51.366;-0.222;2023-03-23T00:31:10;99378.31;;;22.43;49.78
75745;BME280;64359;51.366;-0.222;2023-03-23T00:32:15;99382.27;;;22.43;49.60
75745;BME280;64359;51.366;-0.222;2023-03-23T00:33:20;99381.73;;;22.43;49.71
75745;BME280;64359;51.366;-0.222;2023-03-23T00:34:25;99378.30;;;22.43;49.81
75745;BME280;64359;51.366;-0.222;2023-03-23T00:35:36;99382.11;;;22.42;49.66
75745;BME280;64359;51.366;-0.222;2023-03-23T00:36:41;99387.91;;;22.42;49.63
75745;BME280;64359;51.366;-0.222;2023-03-23T00:37:45;99387.91;;;22.42;49.67
75745;BME280;64359;51.366;-0.222;2023-03-23T00:38:50;99395.67;;;22.43;49.71
75745;BME280;64359;51.366;-0.222;2023-03-23T00:39:54;99393.13;;;22.43;49.71
75745;BME280;64359;51.366;-0.222;2023-03-23T00:41:00;99394.75;;;22.43;49.63
75745;BME280;64359;51.366;-0.222;2023-03-23T00:42:06;99394.27;;;22.42;49.74
75745;BME280;64359;51.366;-0.222;2023-03-23T00:43:10;99400.98;;;22.42;49.73
75745;BME280;64359;51.366;-0.222;2023-03-23T00:44:16;99401.73;;;22.42;49.54
75745;BME280;64359;51.366;-0.222;2023-03-23T00:45:21;99408.38;;;22.42;49.53
75745;BME280;64359;51.366;-0.222;2023-03-23T00:46:27;99403.73;;;22.42;49.65
75745;BME280;64359;51.366;-0.222;2023-03-23T00:47:32;99410.63;;;22.42;49.57
75745;BME280;64359;51.366;-0.222;2023-03-23T00:48:39;99413.35;;;22.42;49.44
75745;BME280;64359;51.366;-0.222;2023-03-23T00:49:47;99413.73;;;22.42;49.38
75745;BME280;64359;51.366;-0.222;2023-03-23T00:50:53;99414.52;;;22.41;49.27
75745;BME280;64359;51.366;-0.222;2023-03-23T00:51:58;99417.36;;;22.41;49.46
75745;BME280;64359;51.366;-0.222;2023-03-23T00:53:02;99411.06;;;22.41;49.28
75745;BME280;64359;51.366;-0.222;2023-03-23T00:54:07;99410.40;;;22.41;49.13
75745;BME280;64359;51.366;-0.222;2023-03-23T00:55:11;99414.73;;;22.41;49.43
75745;BME280;64359;51.366;-0.222;2023-03-23T00:56:16;99412.52;;;22.41;49.42
75745;BME280;64359;51.366;-0.222;2023-03-23T00:57:20;99415.02;;;22.41;49.34
75745;BME280;64359;51.366;-0.222;2023-03-23T00:58:27;99414.52;;;22.41;49.30
75745;BME280;64359;51.366;-0.222;2023-03-23T00:59:31;99413.02;;;22.41;49.00
75745;BME280;64359;51.366;-0.222;2023-03-23T01:00:35;99424.95;;;22.42;49.20
75745;BME280;64359;51.366;-0.222;2023-03-23T01:01:40;99429.20;;;22.42;49.07
75745;BME280;64359;51.366;-0.222;2023-03-23T01:02:45;99432.41;;;22.43;49.08
75745;BME280;64359;51.366;-0.222;2023-03-23T01:03:49;99432.80;;;22.42;49.10
75745;BME280;64359;51.366;-0.222;2023-03-23T01:04:56;99438.52;;;22.43;49.03
75745;BME280;64359;51.366;-0.222;2023-03-23T01:06:05;99434.87;;;22.43;49.05
75745;BME280;64359;51.366;-0.222;2023-03-23T01:07:11;99444.59;;;22.43;48.81
75745;BME280;64359;51.366;-0.222;2023-03-23T01:08:16;99435.08;;;22.43;48.88
75745;BME280;64359;51.366;-0.222;2023-03-23T01:09:21;99432.44;;;22.43;48.88
75745;BME280;64359;51.366;-0.222;2023-03-23T01:10:26;99436.24;;;22.43;49.00
75745;BME280;64359;51.366;-0.222;2023-03-23T01:11:31;99439.29;;;22.44;48.95
75745;BME280;64359;51.366;-0.222;2023-03-23T01:12:36;99436.90;;;22.44;48.90
75745;BME280;64359;51.366;-0.222;2023-03-23T01:13:40;99438.27;;;22.44;49.01
75745;BME280;64359;51.366;-0.222;2023-03-23T01:14:45;99439.02;;;22.44;48.98
75745;BME280;64359;51.366;-0.222;2023-03-23T01:15:50;99436.85;;;22.44;48.91
75745;BME280;64359;51.366;-0.222;2023-03-23T01:16:55;99442.94;;;22.44;48.83
75745;BME280;64359;51.366;-0.222;2023-03-23T01:17:59;99441.27;;;22.45;48.75
75745;BME280;64359;51.366;-0.222;2023-03-23T01:19:04;99445.65;;;22.44;48.77
75745;BME280;64359;51.366;-0.222;2023-03-23T01:20:09;99444.14;;;22.45;48.75
75745;BME280;64359;51.366;-0.222;2023-03-23T01:21:16;99440.52;;;22.45;48.77
75745;BME280;64359;51.366;-0.222;2023-03-23T01:22:20;99443.94;;;22.45;48.69
75745;BME280;64359;51.366;-0.222;2023-03-23T01:23:25;99441.84;;;22.46;48.77
75745;BME280;64359;51.366;-0.222;2023-03-23T01:24:29;99443.30;;;22.46;48.72
75745;BME280;64359;51.366;-0.222;2023-03-23T01:25:36;99445.42;;;22.46;48.73
75745;BME280;64359;51.366;-0.222;2023-03-23T01:26:41;99442.33;;;22.46;48.76
75745;BME280;64359;51.366;-0.222;2023-03-23T01:27:45;99438.91;;;22.46;48.74
75745;BME280;64359;51.366;-0.222;2023-03-23T01:28:50;99436.20;;;22.46;48.76
75745;BME280;64359;51.366;-0.222;2023-03-23T01:29:54;99435.02;;;22.46;48.68
75745;BME280;64359;51.366;-0.222;2023-03-23T01:31:02;99435.32;;;22.46;48.69
75745;BME280;64359;51.366;-0.222;2023-03-23T01:32:07;99438.32;;;22.46;48.66
75745;BME280;64359;51.366;-0.222;2023-03-23T01:33:11;99442.12;;;22.46;48.71
75745;BME280;64359;51.366;-0.222;2023-03-23T01:34:15;99441.91;;;22.47;48.70
75745;BME280;64359;51.366;-0.222;2023-03-23T01:35:20;99441.69;;;22.47;48.76
75745;BME280;64359;51.366;-0.222;2023-03-23T01:36:26;99448.92;;;22.47;48.74
75745;BME280;64359;51.366;-0.222;2023-03-23T01:37:32;99442.04;;;22.47;48.74
75745;BME280;64359;51.366;-0.222;2023-03-23T01:38:36;99440.98;;;22.46;48.80
75745;BME280;64359;51.366;-0.222;2023-03-23T01:39:41;99444.25;;;22.47;48.85
75745;BME280;64359;51.366;-0.222;2023-03-23T01:40:45;99448.38;;;22.47;48.80
75745;BME280;64359;51.366;-0.222;2023-03-23T01:41:50;99453.05;;;22.47;48.86
75745;BME280;64359;51.366;-0.222;2023-03-23T01:42:54;99452.02;;;22.47;48.87
75745;BME280;64359;51.366;-0.222;2023-03-23T01:44:01;99449.64;;;22.47;48.88
75745;BME280;64359;51.366;-0.222;2023-03-23T01:45:32;99447.13;;;22.47;48.77
75745;BME280;64359;51.366;-0.222;2023-03-23T01:46:38;99447.27;;;22.46;48.88
75745;BME280;64359;51.366;-0.222;2023-03-23T01:47:42;99445.80;;;22.46;48.96
75745;BME280;64359;51.366;-0.222;2023-03-23T01:48:47;99450.52;;;22.46;48.87
75745;BME280;64359;51.366;-0.222;2023-03-23T01:49:51;99451.65;;;22.46;48.86
75745;BME280;64359;51.366;-0.222;2023-03-23T01:50:59;99453.66;;;22.45;48.95
75745;BME280;64359;51.366;-0.222;2023-03-23T01:52:07;99451.58;;;22.45;49.11
75745;BME280;64359;51.366;-0.222;2023-03-23T01:53:14;99453.42;;;22.44;49.19
75745;BME280;64359;51.366;-0.222;2023-03-23T01:54:20;99452.17;;;22.44;49.14
75745;BME280;64359;51.366;-0.222;2023-03-23T01:55:26;99458.02;;;22.44;49.18
75745;BME280;64359;51.366;-0.222;2023-03-23T01:56:35;99459.61;;;22.44;49.36
75745;BME280;64359;51.366;-0.222;2023-03-23T01:57:43;99459.73;;;22.44;49.21
75745;BME280;64359;51.366;-0.222;2023-03-23T01:58:48;99457.78;;;22.43;49.11
75745;BME280;64359;51.366;-0.222;2023-03-23T01:59:54;99454.36;;;22.43;49.30
75745;BME280;64359;51.366;-0.222;2023-03-23T02:01:04;99455.70;;;22.43;49.21
75745;BME280;64359;51.366;-0.222;2023-03-23T02:02:09;99458.30;;;22.42;49.09
75745;BME280;64359;51.366;-0.222;2023-03-23T02:03:15;99461.77;;;22.42;49.14
75745;BME280;64359;51.366;-0.222;2023-03-23T02:04:21;99456.39;;;22.42;49.23
75745;BME280;64359;51.366;-0.222;2023-03-23T02:05:30;99457.90;;;22.41;49.00
75745;BME280;64359;51.366;-0.222;2023-03-23T02:06:36;99455.77;;;22.41;49.14
75745;BME280;64359;51.366;-0.222;2023-03-23T02:07:40;99458.48;;;22.41;49.26
75745;BME280;64359;51.366;-0.222;2023-03-23T02:08:45;99462.49;;;22.41;49.11
75745;BME280;64359;51.366;-0.222;2023-03-23T02:09:52;99459.45;;;22.41;49.08
75745;BME280;64359;51.366;-0.222;2023-03-23T02:10:57;99464.88;;;22.41;49.03
75745;BME280;64359;51.366;-0.222;2023-03-23T02:12:02;99465.42;;;22.41;48.99
75745;BME280;64359;51.366;-0.222;2023-03-23T02:13:09;99464.95;;;22.41;49.09
75745;BME280;64359;51.366;-0.222;2023-03-23T02:14:14;99460.33;;;22.41;49.08
75745;BME280;64359;51.366;-0.222;2023-03-23T02:15:20;99464.13;;;22.41;49.00
75745;BME280;64359;51.366;-0.222;2023-03-23T02:16:33;99463.38;;;22.41;48.94
75745;BME280;64359;51.366;-0.222;2023-03-23T02:17:45;99461.63;;;22.41;48.83
75745;BME280;64359;51.366;-0.222;2023-03-23T02:19:04;99464.66;;;22.41;48.71
75745;BME280;64359;51.366;-0.222;2023-03-23T02:20:27;99463.67;;;22.40;48.74
75745;BME280;64359;51.366;-0.222;2023-03-23T02:21:55;99465.19;;;22.40;48.53
75745;BME280;64359;51.366;-0.222;2023-03-23T02:23:20;99470.11;;;22.39;48.46
75745;BME280;64359;51.366;-0.222;2023-03-23T02:24:53;99468.33;;;22.40;48.58
75745;BME280;64359;51.366;-0.222;2023-03-23T02:26:08;99467.25;;;22.38;48.37
75745;BME280;64359;51.366;-0.222;2023-03-23T02:27:20;99467.75;;;22.38;48.51
75745;BME280;64359;51.366;-0.222;2023-03-23T02:28:51;99467.74;;;22.39;48.52
75745;BME280;64359;51.366;-0.222;2023-03-23T02:30:16;99467.30;;;22.38;48.42
75745;BME280;64359;51.366;-0.222;2023-03-23T02:31:39;99470.94;;;22.38;48.57
75745;BME280;64359;51.366;-0.222;2023-03-23T02:33:16;99472.61;;;22.37;48.61
75745;BME280;64359;51.366;-0.222;2023-03-23T02:34:28;99470.95;;;22.36;48.64
75745;BME280;64359;51.366;-0.222;2023-03-23T02:35:36;99470.52;;;22.37;48.65
75745;BME280;64359;51.366;-0.222;2023-03-23T02:36:46;99470.58;;;22.36;48.72
75745;BME280;64359;51.366;-0.222;2023-03-23T02:37:58;99474.38;;;22.36;48.93
75745;BME280;64359;51.366;-0.222;2023-03-23T02:39:08;99470.20;;;22.36;48.84
75745;BME280;64359;51.366;-0.222;2023-03-23T02:40:12;99471.83;;;22.36;48.75
75745;BME280;64359;51.366;-0.222;2023-03-23T02:41:22;99468.52;;;22.34;48.82
75745;BME280;64359;51.366;-0.222;2023-03-23T02:42:30;99473.02;;;22.34;48.79
75745;BME280;64359;51.366;-0.222;2023-03-23T02:43:38;99470.31;;;22.34;48.85
75745;BME280;64359;51.366;-0.222;2023-03-23T02:44:46;99472.48;;;22.34;48.77
75745;BME280;64359;51.366;-0.222;2023-03-23T02:45:51;99467.77;;;22.34;48.94
75745;BME280;64359;51.366;-0.222;2023-03-23T02:46:57;99464.95;;;22.35;49.02
75745;BME280;64359;51.366;-0.222;2023-03-23T02:48:04;99465.17;;;22.35;48.78
75745;BME280;64359;51.366;-0.222;2023-03-23T02:49:11;99465.67;;;22.35;48.94
75745;BME280;64359;51.366;-0.222;2023-03-23T02:50:18;99466.16;;;22.35;48.80
75745;BME280;64359;51.366;-0.222;2023-03-23T02:51:25;99465.41;;;22.36;48.75
75745;BME280;64359;51.366;-0.222;2023-03-23T02:52:31;99458.90;;;22.36;48.82
75745;BME280;64359;51.366;-0.222;2023-03-23T02:53:39;99459.23;;;22.36;49.07
75745;BME280;64359;51.366;-0.222;2023-03-23T02:54:47;99461.61;;;22.36;48.95
75745;BME280;64359;51.366;-0.222;2023-03-23T02:55:53;99462.48;;;22.36;49.10
75745;BME280;64359;51.366;-0.222;2023-03-23T02:56:59;99461.73;;;22.36;49.18
75745;BME280;64359;51.366;-0.222;2023-03-23T02:58:04;99461.85;;;22.37;49.08
75745;BME280;64359;51.366;-0.222;2023-03-23T02:59:08;99467.44;;;22.37;48.93
75745;BME280;64359;51.366;-0.222;2023-03-23T03:00:16;99464.19;;;22.37;49.18
75745;BME280;64359;51.366;-0.222;2023-03-23T03:01:59;99467.98;;;22.37;49.12
75745;BME280;64359;51.366;-0.222;2023-03-23T03:03:04;99467.34;;;22.35;48.98
75745;BME280;64359;51.366;-0.222;2023-03-23T03:04:14;99469.14;;;22.35;49.04
75745;BME280;64359;51.366;-0.222;2023-03-23T03:05:30;99466.80;;;22.35;49.21
75745;BME280;64359;51.366;-0.222;2023-03-23T03:06:44;99463.96;;;22.35;49.01
75745;BME280;64359;51.366;-0.222;2023-03-23T03:08:04;99465.31;;;22.34;49.16
75745;BME280;64359;51.366;-0.222;2023-03-23T03:09:17;99468.23;;;22.34;49.22
75745;BME280;64359;51.366;-0.222;2023-03-23T03:10:25;99467.36;;;22.33;49.07
75745;BME280;64359;51.366;-0.222;2023-03-23T03:11:32;99468.86;;;22.33;49.25
75745;BME280;64359;51.366;-0.222;2023-03-23T03:12:44;99467.90;;;22.34;49.11
75745;BME280;64359;51.366;-0.222;2023-03-23T03:13:53;99466.48;;;22.33;49.04
75745;BME280;64359;51.366;-0.222;2023-03-23T03:15:09;99464.32;;;22.33;49.09
75745;BME280;64359;51.366;-0.222;2023-03-23T03:16:22;99461.98;;;22.33;49.10
75745;BME280;64359;51.366;-0.222;2023-03-23T03:17:30;99463.98;;;22.33;49.10
75745;BME280;64359;51.366;-0.222;2023-03-23T03:18:39;99463.48;;;22.33;49.05
75745;BME280;64359;51.366;-0.222;2023-03-23T03:19:49;99465.55;;;22.33;49.15
75745;BME280;64359;51.366;-0.222;2023-03-23T03:20:59;99467.88;;;22.33;49.10
75745;BME280;64359;51.366;-0.222;2023-03-23T03:22:05;99469.22;;;22.32;49.19
75745;BME280;64359;51.366;-0.222;2023-03-23T03:23:11;99471.58;;;22.33;49.17
75745;BME280;64359;51.366;-0.222;2023-03-23T03:24:19;99476.14;;;22.33;48.99
75745;BME280;64359;51.366;-0.222;2023-03-23T03:25:26;99474.67;;;22.33;48.85
75745;BME280;64359;51.366;-0.222;2023-03-23T03:26:33;99472.17;;;22.33;48.92
75745;BME280;64359;51.366;-0.222;2023-03-23T03:27:38;99475.38;;;22.33;48.70
75745;BME280;64359;51.366;-0.222;2023-03-23T03:28:45;99477.04;;;22.34;48.72
75745;BME280;64359;51.366;-0.222;2023-03-23T03:29:55;99478.29;;;22.34;48.76
75745;BME280;64359;51.366;-0.222;2023-03-23T03:31:03;99476.61;;;22.34;48.57
75745;BME280;64359;51.366;-0.222;2023-03-23T03:32:10;99476.85;;;22.35;48.57
75745;BME280;64359;51.366;-0.222;2023-03-23T03:33:15;99481.52;;;22.36;48.60
75745;BME280;64359;51.366;-0.222;2023-03-23T03:34:20;99478.06;;;22.36;48.55
75745;BME280;64359;51.366;-0.222;2023-03-23T03:35:27;99483.18;;;22.37;48.68
75745;BME280;64359;51.366;-0.222;2023-03-23T03:36:33;99485.56;;;22.36;48.58
75745;BME280;64359;51.366;-0.222;2023-03-23T03:37:39;99481.76;;;22.36;48.76
75745;BME280;64359;51.366;-0.222;2023-03-23T03:38:45;99480.25;;;22.37;48.59
75745;BME280;64359;51.366;-0.222;2023-03-23T03:39:50;99483.84;;;22.37;48.77
75745;BME280;64359;51.366;-0.222;2023-03-23T03:40:55;99482.17;;;22.38;48.66
75745;BME280;64359;51.366;-0.222;2023-03-23T03:42:00;99480.25;;;22.37;48.72
75745;BME280;64359;51.366;-0.222;2023-03-23T03:43:05;99482.21;;;22.37;48.78
75745;BME280;64359;51.366;-0.222;2023-03-23T03:44:11;99488.14;;;22.38;48.76
75745;BME280;64359;51.366;-0.222;2023-03-23T03:45:16;99486.89;;;22.37;48.77
75745;BME280;64359;51.366;-0.222;2023-03-23T03:46:21;99487.76;;;22.38;48.78
75745;BME280;64359;51.366;-0.222;2023-03-23T03:47:29;99491.22;;;22.38;48.86
75745;BME280;64359;51.366;-0.222;2023-03-23T03:48:34;99494.61;;;22.38;48.83
75745;BME280;64359;51.366;-0.222;2023-03-23T03:49:39;99491.55;;;22.38;48.84
75745;BME280;64359;51.366;-0.222;2023-03-23T03:50:43;99491.34;;;22.38;48.97
75745;BME280;64359;51.366;-0.222;2023-03-23T03:51:48;99488.46;;;22.38;48.95
75745;BME280;64359;51.366;-0.222;2023-03-23T03:52:52;99490.27;;;22.38;48.99
75745;BME280;64359;51.366;-0.222;2023-03-23T03:53:57;99489.71;;;22.38;48.81
75745;BME280;64359;51.366;-0.222;2023-03-23T03:55:01;99491.73;;;22.38;49.01
75745;BME280;64359;51.366;-0.222;2023-03-23T03:56:07;99490.89;;;22.37;48.92
75745;BME280;64359;51.366;-0.222;2023-03-23T03:57:11;99494.82;;;22.38;48.99
75745;BME280;64359;51.366;-0.222;2023-03-23T03:58:16;99492.10;;;22.38;49.00
75745;BME280;64359;51.366;-0.222;2023-03-23T03:59:21;99494.48;;;22.38;48.78
75745;BME280;64359;51.366;-0.222;2023-03-23T04:00:25;99494.48;;;22.38;48.80
75745;BME280;64359;51.366;-0.222;2023-03-23T04:01:31;99495.57;;;22.37;48.98
75745;BME280;64359;51.366;-0.222;2023-03-23T04:02:35;99494.98;;;22.38;48.91
75745;BME280;64359;51.366;-0.222;2023-03-23T04:03:39;99495.77;;;22.37;48.88
75745;BME280;64359;51.366;-0.222;2023-03-23T04:04:44;99496.16;;;22.37;48.80
75745;BME280;64359;51.366;-0.222;2023-03-23T04:05:48;99497.24;;;22.37;48.81
75745;BME280;64359;51.366;-0.222;2023-03-23T04:06:53;99495.70;;;22.36;49.00
75745;BME280;64359;51.366;-0.222;2023-03-23T04:07:57;99501.09;;;22.37;48.91
75745;BME280;64359;51.366;-0.222;2023-03-23T04:09:05;99499.33;;;22.36;48.90
75745;BME280;64359;51.366;-0.222;2023-03-23T04:10:11;99498.63;;;22.36;48.90
75745;BME280;64359;51.366;-0.222;2023-03-23T04:11:16;99502.01;;;22.37;48.79
75745;BME280;64359;51.366;-0.222;2023-03-23T04:12:20;99501.06;;;22.36;48.83
75745;BME280;64359;51.366;-0.222;2023-03-23T04:13:25;99502.59;;;22.36;48.94
75745;BME280;64359;51.366;-0.222;2023-03-23T04:14:29;99504.86;;;22.36;48.95
75745;BME280;64359;51.366;-0.222;2023-03-23T04:15:34;99503.77;;;22.36;48.84
75745;BME280;64359;51.366;-0.222;2023-03-23T04:16:38;99503.06;;;22.36;48.93
75745;BME280;64359;51.366;-0.222;2023-03-23T04:17:43;99510.33;;;22.35;48.84
75745;BME280;64359;51.366;-0.222;2023-03-23T04:18:47;99511.52;;;22.35;48.82
75745;BME280;64359;51.366;-0.222;2023-03-23T04:19:52;99517.05;;;22.35;48.79
75745;BME280;64359;51.366;-0.222;2023-03-23T04:21:00;99514.77;;;22.35;48.80
75745;BME280;64359;51.366;-0.222;2023-03-23T04:22:05;99513.73;;;22.34;48.74
75745;BME280;64359;51.366;-0.222;2023-03-23T04:23:10;99519.25;;;22.34;48.72
75745;BME280;64359;51.366;-0.222;2023-03-23T04:24:14;99521.20;;;22.34;48.75
75745;BME280;64359;51.366;-0.222;2023-03-23T04:25:20;99520.87;;;22.34;48.78
75745;BME280;64359;51.366;-0.222;2023-03-23T04:26:24;99519.58;;;22.34;48.78
75745;BME280;64359;51.366;-0.222;2023-03-23T04:27:29;99525.09;;;22.33;48.89
75745;BME280;64359;51.366;-0.222;2023-03-23T04:28:33;99525.21;;;22.34;48.88
75745;BME280;64359;51.366;-0.222;2023-03-23T04:29:38;99526.59;;;22.34;48.83
75745;BME280;64359;51.366;-0.222;2023-03-23T04:30:42;99524.25;;;22.34;48.78
75745;BME280;64359;51.366;-0.222;2023-03-23T04:31:47;99524.83;;;22.34;48.93
75745;BME280;64359;51.366;-0.222;2023-03-23T04:32:53;99523.54;;;22.34;48.73
75745;BME280;64359;51.366;-0.222;2023-03-23T04:33:58;99524.91;;;22.35;48.70
75745;BME280;64359;51.366;-0.222;2023-03-23T04:35:03;99525.33;;;22.34;48.73
75745;BME280;64359;51.366;-0.222;2023-03-23T04:36:09;99527.30;;;22.34;48.67
75745;BME280;64359;51.366;-0.222;2023-03-23T04:37:14;99525.66;;;22.35;48.59
75745;BME280;64359;51.366;-0.222;2023-03-23T04:38:20;99526.16;;;22.35;48.55
75745;BME280;64359;51.366;-0.222;2023-03-23T04:39:26;99525.19;;;22.35;48.40
75745;BME280;64359;51.366;-0.222;2023-03-23T04:40:31;99526.02;;;22.35;48.37
75745;BME280;64359;51.366;-0.222;2023-03-23T04:41:36;99528.58;;;22.35;48.39
75745;BME280;64359;51.366;-0.222;2023-03-23T04:42:42;99530.86;;;22.36;48.36
75745;BME280;64359;51.366;-0.222;2023-03-23T04:43:48;99530.11;;;22.36;48.34
75745;BME280;64359;51.366;-0.222;2023-03-23T04:44:55;99535.16;;;22.36;48.35
75745;BME280;64359;51.366;-0.222;2023-03-23T04:46:00;99538.25;;;22.36;48.32
75745;BME280;64359;51.366;-0.222;2023-03-23T04:47:05;99534.12;;;22.36;48.35
75745;BME280;64359;51.366;-0.222;2023-03-23T04:48:12;99537.61;;;22.37;48.41
75745;BME280;64359;51.366;-0.222;2023-03-23T04:49:17;99538.33;;;22.37;48.34
75745;BME280;64359;51.366;-0.222;2023-03-23T04:50:26;99543.15;;;22.37;48.45
75745;BME280;64359;51.366;-0.222;2023-03-23T04:51:31;99542.44;;;22.37;48.44
75745;BME280;64359;51.366;-0.222;2023-03-23T04:52:35;99545.00;;;22.37;48.34
75745;BME280;64359;51.366;-0.222;2023-03-23T04:53:43;99544.45;;;22.37;48.47
75745;BME280;64359;51.366;-0.222;2023-03-23T04:54:47;99546.20;;;22.38;48.54
75745;BME280;64359;51.366;-0.222;2023-03-23T04:55:52;99543.75;;;22.37;48.57
75745;BME280;64359;51.366;-0.222;2023-03-23T04:56:56;99542.99;;;22.37;48.49
75745;BME280;64359;51.366;-0.222;2023-03-23T04:58:02;99542.83;;;22.37;48.49
75745;BME280;64359;51.366;-0.222;2023-03-23T04:59:06;99538.65;;;22.37;48.49
75745;BME280;64359;51.366;-0.222;2023-03-23T05:00:13;99536.86;;;22.37;48.44
75745;BME280;64359;51.366;-0.222;2023-03-23T05:01:19;99538.15;;;22.37;48.49
75745;BME280;64359;51.366;-0.222;2023-03-23T05:02:24;99536.69;;;22.37;48.44
75745;BME280;64359;51.366;-0.222;2023-03-23T05:03:33;99537.45;;;22.37;48.55
75745;BME280;64359;51.366;-0.222;2023-03-23T05:04:37;99539.61;;;22.37;48.63
75745;BME280;64359;51.366;-0.222;2023-03-23T05:05:43;99538.41;;;22.36;48.50
75745;BME280;64359;51.366;-0.222;2023-03-23T05:06:50;99540.58;;;22.36;48.50
75745;BME280;64359;51.366;-0.222;2023-03-23T05:07:54;99543.63;;;22.36;48.60
75745;BME280;64359;51.366;-0.222;2023-03-23T05:08:59;99543.50;;;22.36;48.53
75745;BME280;64359;51.366;-0.222;2023-03-23T05:10:04;99543.13;;;22.36;48.68
75745;BME280;64359;51.366;-0.222;2023-03-23T05:11:09;99542.97;;;22.36;48.61
75745;BME280;64359;51.366;-0.222;2023-03-23T05:12:13;99540.41;;;22.36;48.64
75745;BME280;64359;51.366;-0.222;2023-03-23T05:13:18;99541.88;;;22.36;48.73
75745;BME280;64359;51.366;-0.222;2023-03-23T05:14:22;99544.26;;;22.36;48.69
75745;BME280;64359;51.366;-0.222;2023-03-23T05:15:26;99547.30;;;22.36;48.60
75745;BME280;64359;51.366;-0.222;2023-03-23T05:16:31;99546.14;;;22.35;48.68
75745;BME280;64359;51.366;-0.222;2023-03-23T05:17:35;99545.77;;;22.35;48.65
75745;BME280;64359;51.366;-0.222;2023-03-23T05:18:40;99547.61;;;22.35;48.73
75745;BME280;64359;51.366;-0.222;2023-03-23T05:19:44;99549.94;;;22.35;48.72
75745;BME280;64359;51.366;-0.222;2023-03-23T05:20:50;99553.13;;;22.35;48.60
75745;BME280;64359;51.366;-0.222;2023-03-23T05:21:57;99551.38;;;22.34;48.71
75745;BME280;64359;51.366;-0.222;2023-03-23T05:23:05;99553.17;;;22.34;48.69
75745;BME280;64359;51.366;-0.222;2023-03-23T05:24:10;99555.23;;;22.34;48.64
75745;BME280;64359;51.366;-0.222;2023-03-23T05:25:15;99553.59;;;22.34;48.64
75745;BME280;64359;51.366;-0.222;2023-03-23T05:26:22;99551.52;;;22.33;48.55
75745;BME280;64359;51.366;-0.222;2023-03-23T05:27:28;99555.43;;;22.34;48.62
75745;BME280;64359;51.366;-0.222;2023-03-23T05:28:33;99556.23;;;22.33;48.57
75745;BME280;64359;51.366;-0.222;2023-03-23T05:29:39;99554.48;;;22.33;48.51
75745;BME280;64359;51.366;-0.222;2023-03-23T05:30:44;99553.95;;;22.33;48.73
75745;BME280;64359;51.366;-0.222;2023-03-23T05:31:48;99553.08;;;22.33;48.63
75745;BME280;64359;51.366;-0.222;2023-03-23T05:32:53;99556.88;;;22.33;48.51
75745;BME280;64359;51.366;-0.222;2023-03-23T05:33:57;99558.05;;;22.32;48.75
75745;BME280;64359;51.366;-0.222;2023-03-23T05:35:02;99560.39;;;22.32;48.62
75745;BME280;64359;51.366;-0.222;2023-03-23T05:36:08;99561.30;;;22.32;48.58
75745;BME280;64359;51.366;-0.222;2023-03-23T05:37:16;99564.23;;;22.32;48.68
75745;BME280;64359;51.366;-0.222;2023-03-23T05:38:20;99564.81;;;22.32;48.62
75745;BME280;64359;51.366;-0.222;2023-03-23T05:39:25;99564.02;;;22.32;48.69
75745;BME280;64359;51.366;-0.222;2023-03-23T05:40:30;99566.48;;;22.32;48.65
75745;BME280;64359;51.366;-0.222;2023-03-23T05:41:34;99567.02;;;22.32;48.56
75745;BME280;64359;51.366;-0.222;2023-03-23T05:42:40;99562.14;;;22.32;48.62
75745;BME280;64359;51.366;-0.222;2023-03-23T05:43:45;99568.48;;;22.32;48.61
75745;BME280;64359;51.366;-0.222;2023-03-23T05:44:49;99568.27;;;22.33;48.63
75745;BME280;64359;51.366;-0.222;2023-03-23T05:45:54;99564.63;;;22.33;48.57
75745;BME280;64359;51.366;-0.222;2023-03-23T05:46:58;99563.24;;;22.33;48.38
75745;BME280;64359;51.366;-0.222;2023-03-23T05:48:03;99560.70;;;22.34;48.31
75745;BME280;64359;51.366;-0.222;2023-03-23T05:49:07;99562.90;;;22.35;48.34